sensor_id;sensor_type;location;lat;lon;timestamp;P1;durP1;ratioP1;P2;durP2;ratioP2
15553;SDS011;7878;44.632;10.942;2023-09-07T00:01:48;4.47;;;3.92;;
15553;SDS011;7878;44.632;10.942;2023-09-07T00:04:14;9.00;;;4.15;;
15553;SDS011;7878;44.632;10.942;2023-09-07T00:06:40;5.20;;;4.00;;
15553;SDS011;7878;44.632;10.942;2023-09-07T00:09:09;4.10;;;3.67;;
15553;SDS011;7878;44.632;10.942;2023-09-07T00:11:36;7.07;;;3.95;;
15553;SDS011;7878;44.632;10.942;2023-09-07T00:14:02;4.00;;;3.65;;
15553;SDS011;7878;44.632;10.942;2023-09-07T00:16:31;5.38;;;4.03;;
15553;SDS011;7878;44.632;10.942;2023-09-07T00:19:00;4.35;;;3.95;;
15553;SDS011;7878;44.632;10.942;2023-09-07T00:21:27;4.85;;;4.35;;
15553;SDS011;7878;44.632;10.942;2023-09-07T00:23:53;8.57;;;4.40;;
15553;SDS011;7878;44.632;10.942;2023-09-07T00:26:20;7.85;;;4.45;;
15553;SDS011;7878;44.632;10.942;2023-09-07T00:28:45;8.98;;;4.43;;
15553;SDS011;7878;44.632;10.942;2023-09-07T00:31:11;11.55;;;4.60;;
15553;SDS011;7878;44.632;10.942;2023-09-07T00:33:37;5.07;;;4.57;;
15553;SDS011;7878;44.632;10.942;2023-09-07T00:36:02;6.68;;;5.38;;
15553;SDS011;7878;44.632;10.942;2023-09-07T00:38:28;7.80;;;5.10;;
15553;SDS011;7878;44.632;10.942;2023-09-07T00:40:54;6.35;;;5.45;;
15553;SDS011;7878;44.632;10.942;2023-09-07T00:43:20;7.38;;;5.72;;
15553;SDS011;7878;44.632;10.942;2023-09-07T00:45:46;7.75;;;5.30;;
15553;SDS011;7878;44.632;10.942;2023-09-07T00:48:12;10.55;;;5.28;;
15553;SDS011;7878;44.632;10.942;2023-09-07T00:50:40;9.00;;;5.13;;
15553;SDS011;7878;44.632;10.942;2023-09-07T00:53:06;7.80;;;4.80;;
15553;SDS011;7878;44.632;10.942;2023-09-07T00:55:32;11.80;;;4.80;;
15553;SDS011;7878;44.632;10.942;2023-09-07T00:58:00;6.70;;;4.55;;
15553;SDS011;7878;44.632;10.942;2023-09-07T01:00:27;7.43;;;4.53;;
15553;SDS011;7878;44.632;10.942;2023-09-07T01:02:53;7.72;;;4.78;;
15553;SDS011;7878;44.632;10.942;2023-09-07T01:05:19;7.15;;;4.55;;
15553;SDS011;7878;44.632;10.942;2023-09-07T01:07:52;10.05;;;4.07;;
15553;SDS011;7878;44.632;10.942;2023-09-07T01:10:29;7.38;;;4.57;;
15553;SDS011;7878;44.632;10.942;2023-09-07T01:12:55;5.65;;;3.97;;
15553;SDS011;7878;44.632;10.942;2023-09-07T01:15:21;6.55;;;4.55;;
15553;SDS011;7878;44.632;10.942;2023-09-07T01:17:46;7.72;;;5.47;;
15553;SDS011;7878;44.632;10.942;2023-09-07T01:20:13;9.95;;;5.82;;
15553;SDS011;7878;44.632;10.942;2023-09-07T01:22:41;8.73;;;5.65;;
15553;SDS011;7878;44.632;10.942;2023-09-07T01:25:08;7.05;;;6.03;;
15553;SDS011;7878;44.632;10.942;2023-09-07T01:27:34;7.95;;;5.45;;
15553;SDS011;7878;44.632;10.942;2023-09-07T01:30:01;11.25;;;6.35;;
15553;SDS011;7878;44.632;10.942;2023-09-07T01:32:28;12.50;;;5.85;;
15553;SDS011;7878;44.632;10.942;2023-09-07T01:34:57;11.75;;;6.28;;
15553;SDS011;7878;44.632;10.942;2023-09-07T01:37:23;12.77;;;6.70;;
15553;SDS011;7878;44.632;10.942;2023-09-07T01:39:49;8.25;;;6.45;;
15553;SDS011;7878;44.632;10.942;2023-09-07T01:42:16;9.95;;;6.38;;
15553;SDS011;7878;44.632;10.942;2023-09-07T01:44:41;9.30;;;6.38;;
15553;SDS011;7878;44.632;10.942;2023-09-07T01:47:08;11.68;;;6.18;;
15553;SDS011;7878;44.632;10.942;2023-09-07T01:49:34;8.80;;;6.20;;
15553;SDS011;7878;44.632;10.942;2023-09-07T01:51:59;10.60;;;6.38;;
15553;SDS011;7878;44.632;10.942;2023-09-07T01:54:25;8.63;;;6.15;;
15553;SDS011;7878;44.632;10.942;2023-09-07T01:56:51;7.75;;;6.68;;
15553;SDS011;7878;44.632;10.942;2023-09-07T01:59:16;7.40;;;6.65;;
15553;SDS011;7878;44.632;10.942;2023-09-07T02:01:42;10.32;;;6.93;;
15553;SDS011;7878;44.632;10.942;2023-09-07T02:04:08;9.23;;;6.78;;
15553;SDS011;7878;44.632;10.942;2023-09-07T02:06:33;8.38;;;6.43;;
15553;SDS011;7878;44.632;10.942;2023-09-07T02:08:59;7.47;;;6.75;;
15553;SDS011;7878;44.632;10.942;2023-09-07T02:11:25;11.38;;;7.13;;
15553;SDS011;7878;44.632;10.942;2023-09-07T02:13:51;12.10;;;7.20;;
15553;SDS011;7878;44.632;10.942;2023-09-07T02:16:16;9.55;;;6.72;;
15553;SDS011;7878;44.632;10.942;2023-09-07T02:18:43;8.43;;;7.18;;
15553;SDS011;7878;44.632;10.942;2023-09-07T02:21:11;10.98;;;7.68;;
15553;SDS011;7878;44.632;10.942;2023-09-07T02:23:37;9.52;;;7.05;;
15553;SDS011;7878;44.632;10.942;2023-09-07T02:26:03;9.38;;;7.47;;
15553;SDS011;7878;44.632;10.942;2023-09-07T02:28:29;8.23;;;7.43;;
15553;SDS011;7878;44.632;10.942;2023-09-07T02:31:02;8.70;;;7.45;;
15553;SDS011;7878;44.632;10.942;2023-09-07T02:33:31;7.55;;;6.70;;
15553;SDS011;7878;44.632;10.942;2023-09-07T02:35:57;11.05;;;7.15;;
15553;SDS011;7878;44.632;10.942;2023-09-07T02:38:23;8.73;;;7.10;;
15553;SDS011;7878;44.632;10.942;2023-09-07T02:40:49;8.52;;;7.47;;
15553;SDS011;7878;44.632;10.942;2023-09-07T02:43:15;9.82;;;6.90;;
15553;SDS011;7878;44.632;10.942;2023-09-07T02:45:41;6.97;;;6.38;;
15553;SDS011;7878;44.632;10.942;2023-09-07T02:48:07;6.20;;;5.45;;
15553;SDS011;7878;44.632;10.942;2023-09-07T02:50:33;8.30;;;6.32;;
15553;SDS011;7878;44.632;10.942;2023-09-07T02:53:00;8.82;;;6.03;;
15553;SDS011;7878;44.632;10.942;2023-09-07T02:55:28;10.23;;;5.93;;
15553;SDS011;7878;44.632;10.942;2023-09-07T02:57:53;6.43;;;5.82;;
15553;SDS011;7878;44.632;10.942;2023-09-07T03:00:21;5.82;;;5.18;;
15553;SDS011;7878;44.632;10.942;2023-09-07T03:02:47;6.38;;;5.57;;
15553;SDS011;7878;44.632;10.942;2023-09-07T03:05:14;6.35;;;4.80;;
15553;SDS011;7878;44.632;10.942;2023-09-07T03:07:40;6.40;;;5.70;;
15553;SDS011;7878;44.632;10.942;2023-09-07T03:10:06;6.90;;;6.15;;
15553;SDS011;7878;44.632;10.942;2023-09-07T03:12:32;9.02;;;6.00;;
15553;SDS011;7878;44.632;10.942;2023-09-07T03:14:59;9.20;;;5.68;;
15553;SDS011;7878;44.632;10.942;2023-09-07T03:17:28;10.25;;;6.15;;
15553;SDS011;7878;44.632;10.942;2023-09-07T03:19:54;6.82;;;5.60;;
15553;SDS011;7878;44.632;10.942;2023-09-07T03:22:20;10.40;;;7.35;;
15553;SDS011;7878;44.632;10.942;2023-09-07T03:24:46;10.35;;;7.18;;
15553;SDS011;7878;44.632;10.942;2023-09-07T03:27:12;11.73;;;7.72;;
15553;SDS011;7878;44.632;10.942;2023-09-07T03:29:37;11.00;;;7.28;;
15553;SDS011;7878;44.632;10.942;2023-09-07T03:32:04;11.13;;;8.35;;
15553;SDS011;7878;44.632;10.942;2023-09-07T03:34:31;11.60;;;7.93;;
15553;SDS011;7878;44.632;10.942;2023-09-07T03:36:57;14.20;;;8.57;;
15553;SDS011;7878;44.632;10.942;2023-09-07T03:39:22;13.75;;;7.82;;
15553;SDS011;7878;44.632;10.942;2023-09-07T03:41:48;9.27;;;7.75;;
15553;SDS011;7878;44.632;10.942;2023-09-07T03:44:14;10.13;;;7.47;;
15553;SDS011;7878;44.632;10.942;2023-09-07T03:46:39;8.90;;;8.00;;
15553;SDS011;7878;44.632;10.942;2023-09-07T03:49:05;9.05;;;7.68;;
15553;SDS011;7878;44.632;10.942;2023-09-07T03:51:31;7.95;;;6.55;;
15553;SDS011;7878;44.632;10.942;2023-09-07T03:53:56;8.63;;;6.50;;
15553;SDS011;7878;44.632;10.942;2023-09-07T03:56:22;7.80;;;7.00;;
15553;SDS011;7878;44.632;10.942;2023-09-07T03:58:48;8.25;;;6.38;;
15553;SDS011;7878;44.632;10.942;2023-09-07T04:01:14;9.00;;;5.68;;
15553;SDS011;7878;44.632;10.942;2023-09-07T04:03:39;9.88;;;6.50;;
15553;SDS011;7878;44.632;10.942;2023-09-07T04:06:05;7.80;;;5.80;;
15553;SDS011;7878;44.632;10.942;2023-09-07T04:08:31;9.30;;;6.90;;
15553;SDS011;7878;44.632;10.942;2023-09-07T04:10:57;13.73;;;6.40;;
15553;SDS011;7878;44.632;10.942;2023-09-07T04:13:23;10.77;;;6.20;;
15553;SDS011;7878;44.632;10.942;2023-09-07T04:15:49;7.53;;;6.70;;
15553;SDS011;7878;44.632;10.942;2023-09-07T04:18:14;7.80;;;6.53;;
15553;SDS011;7878;44.632;10.942;2023-09-07T04:20:41;8.85;;;7.00;;
15553;SDS011;7878;44.632;10.942;2023-09-07T04:23:07;10.45;;;6.93;;
15553;SDS011;7878;44.632;10.942;2023-09-07T04:25:33;10.88;;;7.43;;
15553;SDS011;7878;44.632;10.942;2023-09-07T04:27:59;8.13;;;7.32;;
15553;SDS011;7878;44.632;10.942;2023-09-07T04:30:25;9.52;;;7.28;;
15553;SDS011;7878;44.632;10.942;2023-09-07T04:32:51;10.00;;;7.40;;
15553;SDS011;7878;44.632;10.942;2023-09-07T04:35:17;11.35;;;7.50;;
15553;SDS011;7878;44.632;10.942;2023-09-07T04:37:43;9.68;;;6.75;;
15553;SDS011;7878;44.632;10.942;2023-09-07T04:40:09;9.73;;;6.85;;
15553;SDS011;7878;44.632;10.942;2023-09-07T04:42:35;15.60;;;7.60;;
15553;SDS011;7878;44.632;10.942;2023-09-07T04:45:01;9.27;;;6.40;;
15553;SDS011;7878;44.632;10.942;2023-09-07T04:47:27;11.45;;;7.75;;
15553;SDS011;7878;44.632;10.942;2023-09-07T04:49:52;13.07;;;7.43;;
15553;SDS011;7878;44.632;10.942;2023-09-07T04:52:18;8.65;;;6.85;;
15553;SDS011;7878;44.632;10.942;2023-09-07T04:54:44;10.50;;;7.18;;
15553;SDS011;7878;44.632;10.942;2023-09-07T04:57:10;13.25;;;6.93;;
15553;SDS011;7878;44.632;10.942;2023-09-07T04:59:37;9.43;;;7.28;;
15553;SDS011;7878;44.632;10.942;2023-09-07T05:02:02;18.98;;;7.35;;
15553;SDS011;7878;44.632;10.942;2023-09-07T05:04:28;9.45;;;6.78;;
15553;SDS011;7878;44.632;10.942;2023-09-07T05:06:56;8.77;;;6.22;;
15553;SDS011;7878;44.632;10.942;2023-09-07T05:09:22;15.32;;;8.63;;
15553;SDS011;7878;44.632;10.942;2023-09-07T05:11:48;13.55;;;7.55;;
15553;SDS011;7878;44.632;10.942;2023-09-07T05:14:14;14.43;;;7.25;;
15553;SDS011;7878;44.632;10.942;2023-09-07T05:16:42;13.43;;;6.63;;
15553;SDS011;7878;44.632;10.942;2023-09-07T05:19:08;10.13;;;7.03;;
15553;SDS011;7878;44.632;10.942;2023-09-07T05:21:34;8.20;;;6.55;;
15553;SDS011;7878;44.632;10.942;2023-09-07T05:24:00;12.55;;;7.45;;
15553;SDS011;7878;44.632;10.942;2023-09-07T05:26:26;7.13;;;6.43;;
15553;SDS011;7878;44.632;10.942;2023-09-07T05:28:51;8.73;;;6.95;;
15553;SDS011;7878;44.632;10.942;2023-09-07T05:31:17;9.35;;;6.38;;
15553;SDS011;7878;44.632;10.942;2023-09-07T05:33:43;9.95;;;6.97;;
15553;SDS011;7878;44.632;10.942;2023-09-07T05:36:09;9.35;;;6.25;;
15553;SDS011;7878;44.632;10.942;2023-09-07T05:38:34;16.92;;;6.35;;
15553;SDS011;7878;44.632;10.942;2023-09-07T05:41:00;16.42;;;7.10;;
15553;SDS011;7878;44.632;10.942;2023-09-07T05:43:26;15.27;;;7.30;;
15553;SDS011;7878;44.632;10.942;2023-09-07T05:45:52;14.48;;;6.35;;
15553;SDS011;7878;44.632;10.942;2023-09-07T05:48:17;15.77;;;6.43;;
15553;SDS011;7878;44.632;10.942;2023-09-07T05:50:43;10.73;;;6.13;;
15553;SDS011;7878;44.632;10.942;2023-09-07T05:53:10;9.07;;;6.35;;
15553;SDS011;7878;44.632;10.942;2023-09-07T05:55:35;15.18;;;6.50;;
15553;SDS011;7878;44.632;10.942;2023-09-07T05:58:05;17.13;;;6.65;;
15553;SDS011;7878;44.632;10.942;2023-09-07T06:00:31;14.88;;;6.55;;
15553;SDS011;7878;44.632;10.942;2023-09-07T06:02:57;12.35;;;6.25;;
15553;SDS011;7878;44.632;10.942;2023-09-07T06:05:23;12.80;;;6.47;;
15553;SDS011;7878;44.632;10.942;2023-09-07T06:07:48;7.30;;;5.43;;
15553;SDS011;7878;44.632;10.942;2023-09-07T06:10:14;11.95;;;6.07;;
15553;SDS011;7878;44.632;10.942;2023-09-07T06:12:42;15.18;;;6.28;;
15553;SDS011;7878;44.632;10.942;2023-09-07T06:15:08;11.63;;;6.25;;
15553;SDS011;7878;44.632;10.942;2023-09-07T06:17:34;17.60;;;5.72;;
15553;SDS011;7878;44.632;10.942;2023-09-07T06:20:00;10.68;;;5.50;;
15553;SDS011;7878;44.632;10.942;2023-09-07T06:22:25;14.05;;;6.47;;
15553;SDS011;7878;44.632;10.942;2023-09-07T06:24:51;13.50;;;5.97;;
15553;SDS011;7878;44.632;10.942;2023-09-07T06:27:17;13.75;;;5.90;;
15553;SDS011;7878;44.632;10.942;2023-09-07T06:29:42;12.48;;;6.18;;
15553;SDS011;7878;44.632;10.942;2023-09-07T06:32:08;12.63;;;6.45;;
15553;SDS011;7878;44.632;10.942;2023-09-07T06:34:34;9.88;;;5.82;;
15553;SDS011;7878;44.632;10.942;2023-09-07T06:36:59;7.15;;;6.15;;
15553;SDS011;7878;44.632;10.942;2023-09-07T06:39:26;9.45;;;5.28;;
15553;SDS011;7878;44.632;10.942;2023-09-07T06:41:51;12.68;;;6.78;;
15553;SDS011;7878;44.632;10.942;2023-09-07T06:44:17;17.58;;;5.97;;
15553;SDS011;7878;44.632;10.942;2023-09-07T06:46:42;17.63;;;6.22;;
15553;SDS011;7878;44.632;10.942;2023-09-07T06:49:08;11.23;;;5.90;;
15553;SDS011;7878;44.632;10.942;2023-09-07T06:51:34;8.20;;;5.57;;
15553;SDS011;7878;44.632;10.942;2023-09-07T06:54:00;20.10;;;6.43;;
15553;SDS011;7878;44.632;10.942;2023-09-07T06:56:25;10.60;;;6.20;;
15553;SDS011;7878;44.632;10.942;2023-09-07T06:58:51;13.60;;;6.20;;
15553;SDS011;7878;44.632;10.942;2023-09-07T07:01:17;11.60;;;5.88;;
15553;SDS011;7878;44.632;10.942;2023-09-07T07:03:43;11.25;;;6.32;;
15553;SDS011;7878;44.632;10.942;2023-09-07T07:06:09;11.98;;;6.80;;
15553;SDS011;7878;44.632;10.942;2023-09-07T07:08:35;9.70;;;6.05;;
15553;SDS011;7878;44.632;10.942;2023-09-07T07:11:00;15.77;;;7.20;;
15553;SDS011;7878;44.632;10.942;2023-09-07T07:13:26;9.75;;;6.80;;
15553;SDS011;7878;44.632;10.942;2023-09-07T07:15:52;11.65;;;6.22;;
15553;SDS011;7878;44.632;10.942;2023-09-07T07:18:17;10.50;;;6.53;;
15553;SDS011;7878;44.632;10.942;2023-09-07T07:20:44;14.13;;;6.00;;
15553;SDS011;7878;44.632;10.942;2023-09-07T07:23:10;9.73;;;5.80;;
15553;SDS011;7878;44.632;10.942;2023-09-07T07:25:37;10.75;;;6.95;;
15553;SDS011;7878;44.632;10.942;2023-09-07T07:28:03;11.55;;;6.60;;
15553;SDS011;7878;44.632;10.942;2023-09-07T07:30:35;8.35;;;5.82;;
15553;SDS011;7878;44.632;10.942;2023-09-07T07:33:03;12.32;;;5.95;;
15553;SDS011;7878;44.632;10.942;2023-09-07T07:35:30;11.68;;;6.80;;
15553;SDS011;7878;44.632;10.942;2023-09-07T07:37:56;10.13;;;6.70;;
15553;SDS011;7878;44.632;10.942;2023-09-07T07:40:22;9.98;;;5.85;;
15553;SDS011;7878;44.632;10.942;2023-09-07T07:42:47;10.68;;;5.90;;
15553;SDS011;7878;44.632;10.942;2023-09-07T07:45:14;9.07;;;5.07;;
15553;SDS011;7878;44.632;10.942;2023-09-07T07:47:40;12.57;;;6.10;;
15553;SDS011;7878;44.632;10.942;2023-09-07T07:50:06;8.73;;;6.18;;
15553;SDS011;7878;44.632;10.942;2023-09-07T07:52:32;13.48;;;5.30;;
15553;SDS011;7878;44.632;10.942;2023-09-07T07:54:59;8.02;;;5.82;;
15553;SDS011;7878;44.632;10.942;2023-09-07T07:57:24;9.65;;;5.95;;
15553;SDS011;7878;44.632;10.942;2023-09-07T07:59:50;10.07;;;6.25;;
15553;SDS011;7878;44.632;10.942;2023-09-07T08:02:16;9.65;;;5.60;;
15553;SDS011;7878;44.632;10.942;2023-09-07T08:04:41;9.40;;;6.43;;
15553;SDS011;7878;44.632;10.942;2023-09-07T08:07:07;7.90;;;6.13;;
15553;SDS011;7878;44.632;10.942;2023-09-07T08:09:33;7.45;;;6.18;;
15553;SDS011;7878;44.632;10.942;2023-09-07T08:11:59;12.65;;;6.05;;
15553;SDS011;7878;44.632;10.942;2023-09-07T08:14:28;9.18;;;6.45;;
15553;SDS011;7878;44.632;10.942;2023-09-07T08:16:54;7.35;;;5.97;;
15553;SDS011;7878;44.632;10.942;2023-09-07T08:19:21;10.90;;;6.72;;
15553;SDS011;7878;44.632;10.942;2023-09-07T08:21:47;14.93;;;5.88;;
15553;SDS011;7878;44.632;10.942;2023-09-07T08:24:12;11.35;;;7.47;;
15553;SDS011;7878;44.632;10.942;2023-09-07T08:26:38;8.73;;;6.70;;
15553;SDS011;7878;44.632;10.942;2023-09-07T08:29:04;7.50;;;6.43;;
15553;SDS011;7878;44.632;10.942;2023-09-07T08:31:39;10.68;;;6.47;;
15553;SDS011;7878;44.632;10.942;2023-09-07T08:34:06;13.70;;;6.40;;
15553;SDS011;7878;44.632;10.942;2023-09-07T08:36:36;7.22;;;5.95;;
15553;SDS011;7878;44.632;10.942;2023-09-07T08:39:03;13.15;;;6.20;;
15553;SDS011;7878;44.632;10.942;2023-09-07T08:41:38;6.10;;;5.50;;
15553;SDS011;7878;44.632;10.942;2023-09-07T08:44:12;8.15;;;6.35;;
15553;SDS011;7878;44.632;10.942;2023-09-07T08:46:40;9.82;;;5.60;;
15553;SDS011;7878;44.632;10.942;2023-09-07T08:49:07;11.07;;;5.60;;
15553;SDS011;7878;44.632;10.942;2023-09-07T08:51:34;8.35;;;5.75;;
15553;SDS011;7878;44.632;10.942;2023-09-07T08:54:02;8.80;;;5.47;;
15553;SDS011;7878;44.632;10.942;2023-09-07T08:56:29;9.60;;;6.85;;
15553;SDS011;7878;44.632;10.942;2023-09-07T08:58:54;8.63;;;5.88;;
15553;SDS011;7878;44.632;10.942;2023-09-07T09:01:20;9.93;;;6.80;;
15553;SDS011;7878;44.632;10.942;2023-09-07T09:03:46;10.25;;;5.78;;
15553;SDS011;7878;44.632;10.942;2023-09-07T09:06:14;12.23;;;6.10;;
15553;SDS011;7878;44.632;10.942;2023-09-07T09:08:45;9.38;;;5.38;;
15553;SDS011;7878;44.632;10.942;2023-09-07T09:11:14;12.25;;;5.90;;
15553;SDS011;7878;44.632;10.942;2023-09-07T09:13:41;10.25;;;5.80;;
15553;SDS011;7878;44.632;10.942;2023-09-07T09:16:08;11.65;;;6.18;;
15553;SDS011;7878;44.632;10.942;2023-09-07T09:18:53;6.78;;;5.53;;
15553;SDS011;7878;44.632;10.942;2023-09-07T09:21:20;7.72;;;5.05;;
15553;SDS011;7878;44.632;10.942;2023-09-07T09:23:51;8.98;;;5.07;;
15553;SDS011;7878;44.632;10.942;2023-09-07T09:26:18;4.95;;;4.45;;
15553;SDS011;7878;44.632;10.942;2023-09-07T09:28:44;9.35;;;5.07;;
15553;SDS011;7878;44.632;10.942;2023-09-07T09:31:11;9.77;;;5.00;;
15553;SDS011;7878;44.632;10.942;2023-09-07T09:33:38;7.07;;;4.93;;
15553;SDS011;7878;44.632;10.942;2023-09-07T09:36:04;6.32;;;4.85;;
15553;SDS011;7878;44.632;10.942;2023-09-07T09:38:31;9.80;;;5.10;;
15553;SDS011;7878;44.632;10.942;2023-09-07T09:40:58;10.63;;;5.05;;
15553;SDS011;7878;44.632;10.942;2023-09-07T09:43:27;11.80;;;4.57;;
15553;SDS011;7878;44.632;10.942;2023-09-07T09:45:53;16.80;;;4.55;;
15553;SDS011;7878;44.632;10.942;2023-09-07T09:48:19;6.40;;;4.72;;
15553;SDS011;7878;44.632;10.942;2023-09-07T09:50:49;12.52;;;5.07;;
15553;SDS011;7878;44.632;10.942;2023-09-07T09:53:16;9.57;;;6.07;;
15553;SDS011;7878;44.632;10.942;2023-09-07T09:55:45;5.82;;;4.78;;
15553;SDS011;7878;44.632;10.942;2023-09-07T09:58:12;7.05;;;4.95;;
15553;SDS011;7878;44.632;10.942;2023-09-07T10:00:45;9.55;;;5.05;;
15553;SDS011;7878;44.632;10.942;2023-09-07T10:05:48;12.82;;;5.97;;
15553;SDS011;7878;44.632;10.942;2023-09-07T10:08:16;11.27;;;5.53;;
15553;SDS011;7878;44.632;10.942;2023-09-07T10:10:44;8.32;;;4.97;;
15553;SDS011;7878;44.632;10.942;2023-09-07T10:13:13;11.23;;;5.30;;
15553;SDS011;7878;44.632;10.942;2023-09-07T10:15:39;11.13;;;5.10;;
15553;SDS011;7878;44.632;10.942;2023-09-07T10:18:11;21.90;;;6.28;;
15553;SDS011;7878;44.632;10.942;2023-09-07T10:23:14;6.28;;;5.47;;
15553;SDS011;7878;44.632;10.942;2023-09-07T10:25:40;6.70;;;4.57;;
15553;SDS011;7878;44.632;10.942;2023-09-07T10:28:16;5.90;;;5.10;;
15553;SDS011;7878;44.632;10.942;2023-09-07T10:33:40;7.25;;;4.43;;
15553;SDS011;7878;44.632;10.942;2023-09-07T10:36:06;5.13;;;4.60;;
15553;SDS011;7878;44.632;10.942;2023-09-07T10:38:32;6.20;;;4.18;;
15553;SDS011;7878;44.632;10.942;2023-09-07T10:41:02;7.90;;;4.65;;
15553;SDS011;7878;44.632;10.942;2023-09-07T10:43:29;9.32;;;5.38;;
15553;SDS011;7878;44.632;10.942;2023-09-07T10:45:56;10.65;;;5.10;;
15553;SDS011;7878;44.632;10.942;2023-09-07T10:48:24;5.40;;;4.80;;
15553;SDS011;7878;44.632;10.942;2023-09-07T10:50:50;7.53;;;6.78;;
15553;SDS011;7878;44.632;10.942;2023-09-07T10:53:26;11.27;;;4.70;;
15553;SDS011;7878;44.632;10.942;2023-09-07T10:55:53;6.85;;;4.28;;
15553;SDS011;7878;44.632;10.942;2023-09-07T10:58:27;6.32;;;4.30;;
15553;SDS011;7878;44.632;10.942;2023-09-07T11:00:55;7.97;;;4.05;;
15553;SDS011;7878;44.632;10.942;2023-09-07T11:03:21;5.10;;;4.15;;
15553;SDS011;7878;44.632;10.942;2023-09-07T11:05:47;5.88;;;3.85;;
15553;SDS011;7878;44.632;10.942;2023-09-07T11:08:13;11.88;;;4.57;;
15553;SDS011;7878;44.632;10.942;2023-09-07T11:10:39;7.05;;;4.38;;
15553;SDS011;7878;44.632;10.942;2023-09-07T11:13:05;5.38;;;4.13;;
15553;SDS011;7878;44.632;10.942;2023-09-07T11:15:32;6.55;;;4.35;;
15553;SDS011;7878;44.632;10.942;2023-09-07T11:18:04;7.60;;;4.35;;
15553;SDS011;7878;44.632;10.942;2023-09-07T11:20:31;7.28;;;4.07;;
15553;SDS011;7878;44.632;10.942;2023-09-07T11:22:58;17.50;;;4.97;;
15553;SDS011;7878;44.632;10.942;2023-09-07T11:25:25;5.70;;;3.92;;
15553;SDS011;7878;44.632;10.942;2023-09-07T11:27:51;7.03;;;3.65;;
15553;SDS011;7878;44.632;10.942;2023-09-07T11:30:22;10.13;;;4.28;;
15553;SDS011;7878;44.632;10.942;2023-09-07T11:32:49;6.10;;;4.45;;
15553;SDS011;7878;44.632;10.942;2023-09-07T11:35:15;5.18;;;3.83;;
15553;SDS011;7878;44.632;10.942;2023-09-07T11:37:41;5.50;;;4.32;;
15553;SDS011;7878;44.632;10.942;2023-09-07T11:40:07;7.25;;;4.35;;
15553;SDS011;7878;44.632;10.942;2023-09-07T11:42:38;4.47;;;3.65;;
15553;SDS011;7878;44.632;10.942;2023-09-07T11:45:05;7.20;;;4.20;;
15553;SDS011;7878;44.632;10.942;2023-09-07T11:47:32;5.95;;;3.67;;
15553;SDS011;7878;44.632;10.942;2023-09-07T11:49:59;3.92;;;3.45;;
15553;SDS011;7878;44.632;10.942;2023-09-07T11:52:25;4.25;;;3.67;;
15553;SDS011;7878;44.632;10.942;2023-09-07T11:54:51;7.35;;;3.97;;
15553;SDS011;7878;44.632;10.942;2023-09-07T11:57:17;7.75;;;4.60;;
15553;SDS011;7878;44.632;10.942;2023-09-07T11:59:42;5.47;;;3.78;;
15553;SDS011;7878;44.632;10.942;2023-09-07T12:02:08;4.13;;;3.75;;
15553;SDS011;7878;44.632;10.942;2023-09-07T12:04:37;8.05;;;4.13;;
15553;SDS011;7878;44.632;10.942;2023-09-07T12:07:03;7.43;;;3.78;;
15553;SDS011;7878;44.632;10.942;2023-09-07T12:09:29;5.13;;;4.07;;
15553;SDS011;7878;44.632;10.942;2023-09-07T12:11:55;5.90;;;4.32;;
15553;SDS011;7878;44.632;10.942;2023-09-07T12:14:21;6.60;;;3.83;;
15553;SDS011;7878;44.632;10.942;2023-09-07T12:16:47;7.50;;;3.72;;
15553;SDS011;7878;44.632;10.942;2023-09-07T12:19:13;8.40;;;4.13;;
15553;SDS011;7878;44.632;10.942;2023-09-07T12:21:39;6.68;;;3.72;;
15553;SDS011;7878;44.632;10.942;2023-09-07T12:24:06;4.05;;;3.05;;
15553;SDS011;7878;44.632;10.942;2023-09-07T12:26:32;4.28;;;3.65;;
15553;SDS011;7878;44.632;10.942;2023-09-07T12:28:57;5.25;;;3.60;;
15553;SDS011;7878;44.632;10.942;2023-09-07T12:31:23;5.88;;;3.72;;
15553;SDS011;7878;44.632;10.942;2023-09-07T12:33:49;5.97;;;3.85;;
15553;SDS011;7878;44.632;10.942;2023-09-07T12:36:14;5.00;;;3.72;;
15553;SDS011;7878;44.632;10.942;2023-09-07T12:38:40;5.63;;;3.67;;
15553;SDS011;7878;44.632;10.942;2023-09-07T12:41:06;5.22;;;3.67;;
15553;SDS011;7878;44.632;10.942;2023-09-07T12:43:32;7.90;;;3.78;;
15553;SDS011;7878;44.632;10.942;2023-09-07T12:45:58;6.95;;;3.67;;
15553;SDS011;7878;44.632;10.942;2023-09-07T12:48:24;9.18;;;3.95;;
15553;SDS011;7878;44.632;10.942;2023-09-07T12:50:49;7.03;;;3.80;;
15553;SDS011;7878;44.632;10.942;2023-09-07T12:53:15;3.53;;;3.28;;
15553;SDS011;7878;44.632;10.942;2023-09-07T12:55:41;6.10;;;4.05;;
15553;SDS011;7878;44.632;10.942;2023-09-07T12:58:07;9.50;;;4.40;;
15553;SDS011;7878;44.632;10.942;2023-09-07T13:00:33;8.57;;;3.72;;
15553;SDS011;7878;44.632;10.942;2023-09-07T13:02:59;6.13;;;4.13;;
15553;SDS011;7878;44.632;10.942;2023-09-07T13:05:24;7.55;;;3.72;;
15553;SDS011;7878;44.632;10.942;2023-09-07T13:07:50;6.15;;;3.90;;
15553;SDS011;7878;44.632;10.942;2023-09-07T13:10:17;4.95;;;3.63;;
15553;SDS011;7878;44.632;10.942;2023-09-07T13:12:43;7.40;;;3.83;;
15553;SDS011;7878;44.632;10.942;2023-09-07T13:15:09;5.22;;;3.58;;
15553;SDS011;7878;44.632;10.942;2023-09-07T13:17:35;6.75;;;4.90;;
15553;SDS011;7878;44.632;10.942;2023-09-07T13:20:00;10.57;;;5.13;;
15553;SDS011;7878;44.632;10.942;2023-09-07T13:22:26;6.45;;;3.88;;
15553;SDS011;7878;44.632;10.942;2023-09-07T13:24:52;4.43;;;4.03;;
15553;SDS011;7878;44.632;10.942;2023-09-07T13:27:18;4.80;;;3.83;;
15553;SDS011;7878;44.632;10.942;2023-09-07T13:29:43;10.75;;;4.22;;
15553;SDS011;7878;44.632;10.942;2023-09-07T13:32:09;5.63;;;4.10;;
15553;SDS011;7878;44.632;10.942;2023-09-07T13:34:35;10.93;;;3.53;;
15553;SDS011;7878;44.632;10.942;2023-09-07T13:37:00;7.97;;;3.67;;
15553;SDS011;7878;44.632;10.942;2023-09-07T13:39:26;5.35;;;3.63;;
15553;SDS011;7878;44.632;10.942;2023-09-07T13:41:52;4.07;;;3.67;;
15553;SDS011;7878;44.632;10.942;2023-09-07T13:44:18;8.32;;;3.85;;
15553;SDS011;7878;44.632;10.942;2023-09-07T13:46:43;6.63;;;3.50;;
15553;SDS011;7878;44.632;10.942;2023-09-07T13:49:10;7.70;;;3.65;;
15553;SDS011;7878;44.632;10.942;2023-09-07T13:51:37;10.48;;;4.10;;
15553;SDS011;7878;44.632;10.942;2023-09-07T13:54:05;6.97;;;3.50;;
15553;SDS011;7878;44.632;10.942;2023-09-07T13:56:32;4.63;;;3.50;;
15553;SDS011;7878;44.632;10.942;2023-09-07T13:58:58;4.43;;;3.72;;
15553;SDS011;7878;44.632;10.942;2023-09-07T14:01:24;6.72;;;3.33;;
15553;SDS011;7878;44.632;10.942;2023-09-07T14:03:50;3.92;;;3.60;;
15553;SDS011;7878;44.632;10.942;2023-09-07T14:06:16;6.93;;;3.80;;
15553;SDS011;7878;44.632;10.942;2023-09-07T14:08:43;8.57;;;3.72;;
15553;SDS011;7878;44.632;10.942;2023-09-07T14:11:10;4.22;;;3.28;;
15553;SDS011;7878;44.632;10.942;2023-09-07T14:13:35;3.83;;;3.33;;
15553;SDS011;7878;44.632;10.942;2023-09-07T14:16:01;5.15;;;3.28;;
15553;SDS011;7878;44.632;10.942;2023-09-07T14:18:27;5.18;;;3.33;;
15553;SDS011;7878;44.632;10.942;2023-09-07T14:20:53;13.98;;;4.07;;
15553;SDS011;7878;44.632;10.942;2023-09-07T14:23:22;4.82;;;3.90;;
15553;SDS011;7878;44.632;10.942;2023-09-07T14:25:50;3.97;;;3.08;;
15553;SDS011;7878;44.632;10.942;2023-09-07T14:28:19;8.48;;;3.72;;
15553;SDS011;7878;44.632;10.942;2023-09-07T14:30:45;7.00;;;3.40;;
15553;SDS011;7878;44.632;10.942;2023-09-07T14:33:11;8.30;;;3.70;;
15553;SDS011;7878;44.632;10.942;2023-09-07T14:35:36;4.38;;;3.35;;
15553;SDS011;7878;44.632;10.942;2023-09-07T14:38:02;8.15;;;3.53;;
15553;SDS011;7878;44.632;10.942;2023-09-07T14:40:28;5.53;;;3.40;;
15553;SDS011;7878;44.632;10.942;2023-09-07T14:42:54;5.38;;;3.30;;
15553;SDS011;7878;44.632;10.942;2023-09-07T14:45:22;3.95;;;3.53;;
15553;SDS011;7878;44.632;10.942;2023-09-07T14:47:49;4.05;;;3.10;;